Mont-Saint-Hilaire, Canada
Current Conditions -  °F | °C
As of 4:00 AM on Thursday 23 Oct 2014 (Local Time) from CYHU Reporting Station
Overcast Overcast  
Wind Chill: 37°   Ceiling: 4400
Heat Index: 45°   Visibility: 9mi
Dew Point: 34°   Wind: 18mph
Humidity: 66%   Direction: 40°NE
Pressure: 30.13"   Gusts: 32mph
Location:  45.53°N, 73.17°W
Report Text: CYHU 230800Z AUTO 04016G28KT 9SM OVC044 07/01 A3013 RMK SLP203
Loading
Personal Weather Stations






























Interactive Weather Map
Tropical Storm Tracking
New forecast layout! Learn more

10-Day Weather Forecast

Advertisements
Track Severe Weather on mobile